Time;durP1;ratioP1;P1;durP2;ratioP2;P2;SDS_P1;SDS_P2;PMS_P1;PMS_P2;Temp;Humidity;BMP_temperature;BMP_pressure;BME280_temperature;BME280_humidity;BME280_pressure;Samples;Min_cycle;Max_cycle;Signal;HPM_P1;HPM_P2
2022/02/26 00:02:10;;;;;;;0.00;0.00;;;;;25.70;100648.00;;;;4820081;29;20059;-83
2022/02/26 00:04:40;;;;;;;0.00;0.00;;;;;25.60;100644.00;;;;4819125;29;20054;-83
2022/02/26 00:07:10;;;;;;;0.00;0.00;;;;;25.40;100656.00;;;;4820090;29;20054;-84
2022/02/26 00:09:39;;;;;;;0.00;0.00;;;;;25.30;100645.00;;;;4819928;29;20058;-83
2022/02/26 00:12:09;;;;;;;0.10;0.10;;;;;25.10;100652.00;;;;4820027;29;20084;-82
2022/02/26 00:14:40;;;;;;;0.00;0.00;;;;;25.10;100668.00;;;;4819484;29;20515;-87
2022/02/26 00:17:09;;;;;;;1.05;0.40;;;;;25.00;100664.00;;;;4819450;29;20545;-87
2022/02/26 00:19:40;;;;;;;0.20;0.17;;;;;25.00;100671.00;;;;4804174;29;20074;-83
2022/02/26 00:22:11;;;;;;;0.00;0.00;;;;;25.00;100673.00;;;;4819583;29;20054;-84
2022/02/26 00:24:41;;;;;;;0.00;0.00;;;;;25.00;100654.00;;;;4819131;29;20053;-84
2022/02/26 00:27:11;;;;;;;0.00;0.00;;;;;25.00;100663.00;;;;4802828;29;20099;-88
2022/02/26 00:29:43;;;;;;;0.00;0.00;;;;;25.00;100664.00;;;;4819395;29;20562;-86
2022/02/26 00:32:13;;;;;;;0.00;0.00;;;;;25.00;100668.00;;;;4819482;29;20429;-84
2022/02/26 00:34:44;;;;;;;0.00;0.00;;;;;24.90;100660.00;;;;4819399;29;20518;-84
2022/02/26 00:37:14;;;;;;;0.00;0.00;;;;;24.90;100674.00;;;;4818850;29;20049;-83
2022/02/26 00:39:45;;;;;;;0.00;0.00;;;;;24.90;100669.00;;;;4832217;29;20070;-87
2022/02/26 00:42:15;;;;;;;0.13;0.13;;;;;24.80;100680.00;;;;4794275;29;20058;-84
2022/02/26 00:44:47;;;;;;;0.00;0.00;;;;;24.80;100679.00;;;;4800872;29;20050;-84
2022/02/26 00:47:16;;;;;;;0.00;0.00;;;;;24.90;100667.00;;;;4800943;29;20122;-84
2022/02/26 00:49:49;;;;;;;0.00;0.00;;;;;24.80;100683.00;;;;4801332;29;20054;-84
2022/02/26 00:52:19;;;;;;;0.00;0.00;;;;;24.80;100680.00;;;;4801496;29;20559;-85
2022/02/26 00:54:51;;;;;;;0.00;0.00;;;;;24.70;100667.00;;;;4800447;29;20131;-84
2022/02/26 00:57:21;;;;;;;0.00;0.00;;;;;24.70;100687.00;;;;4784952;29;20055;-85
2022/02/26 00:59:51;;;;;;;0.00;0.00;;;;;24.60;100673.00;;;;4801944;29;20100;-85
2022/02/26 01:02:21;;;;;;;0.00;0.00;;;;;24.50;100689.00;;;;4800903;29;20055;-85
2022/02/26 01:04:53;;;;;;;0.00;0.00;;;;;24.40;100659.00;;;;4800469;29;20042;-86
2022/02/26 01:07:23;;;;;;;0.00;0.00;;;;;24.40;100686.00;;;;4801055;29;20061;-87
2022/02/26 01:09:54;;;;;;;0.00;0.00;;;;;24.50;100668.00;;;;4808690;29;20080;-86
2022/02/26 01:12:24;;;;;;;0.00;0.00;;;;;24.50;100673.00;;;;4805556;29;20051;-84
2022/02/26 01:14:56;;;;;;;0.00;0.00;;;;;24.40;100661.00;;;;4803628;29;20059;-86
2022/02/26 01:17:25;;;;;;;0.00;0.00;;;;;24.40;100673.00;;;;4802350;29;20589;-85
2022/02/26 01:19:58;;;;;;;0.00;0.00;;;;;24.40;100685.00;;;;4801389;29;20458;-85
2022/02/26 01:22:33;;;;;;;0.00;0.00;;;;;24.40;100691.00;;;;4784672;29;20362;-85
2022/02/26 01:25:04;;;;;;;0.00;0.00;;;;;24.40;100669.00;;;;4800588;29;20513;-86
2022/02/26 01:27:36;;;;;;;0.00;0.00;;;;;24.40;100683.00;;;;4785037;29;20047;-87
2022/02/26 01:30:10;;;;;;;0.00;0.00;;;;;24.30;100673.00;;;;4801200;29;20125;-87
2022/02/26 01:32:44;;;;;;;0.00;0.00;;;;;24.30;100677.00;;;;4785729;29;20053;-87
2022/02/26 01:35:14;;;;;;;0.00;0.00;;;;;24.20;100688.00;;;;4816490;29;20065;-84
2022/02/26 01:37:44;;;;;;;0.00;0.00;;;;;24.20;100670.00;;;;4785796;29;20055;-87
2022/02/26 01:40:13;;;;;;;0.00;0.00;;;;;24.10;100685.00;;;;4799063;29;20046;-85
2022/02/26 01:42:43;;;;;;;0.10;0.10;;;;;24.00;100682.00;;;;4811023;29;20172;-86
2022/02/26 01:45:15;;;;;;;0.75;0.75;;;;;24.00;100685.00;;;;4800915;29;20435;-88
2022/02/26 01:47:45;;;;;;;0.00;0.00;;;;;23.90;100686.00;;;;4819046;29;20046;-85
2022/02/26 01:50:16;;;;;;;0.00;0.00;;;;;23.90;100661.00;;;;4801920;29;20051;-86
2022/02/26 01:52:47;;;;;;;0.00;0.00;;;;;23.80;100691.00;;;;4817846;29;20062;-85
2022/02/26 01:55:17;;;;;;;0.00;0.00;;;;;23.80;100687.00;;;;4818385;29;20046;-86
2022/02/26 01:57:46;;;;;;;0.00;0.00;;;;;23.70;100688.00;;;;4802723;29;20078;-84
2022/02/26 02:00:16;;;;;;;0.00;0.00;;;;;23.60;100685.00;;;;4818284;29;20063;-87
2022/02/26 02:02:46;;;;;;;0.00;0.00;;;;;23.60;100674.00;;;;4802257;29;20083;-85
2022/02/26 02:05:16;;;;;;;0.00;0.00;;;;;23.50;100674.00;;;;4802165;29;20046;-87
2022/02/26 02:07:45;;;;;;;0.00;0.00;;;;;23.50;100676.00;;;;4817803;29;20047;-85
2022/02/26 02:10:15;;;;;;;0.00;0.00;;;;;23.50;100668.00;;;;4817803;29;20081;-87
2022/02/26 02:12:45;;;;;;;0.20;0.20;;;;;23.40;100664.00;;;;4802861;29;20150;-84
2022/02/26 02:15:15;;;;;;;0.00;0.00;;;;;23.40;100681.00;;;;4833070;29;20137;-85
2022/02/26 02:17:45;;;;;;;0.00;0.00;;;;;23.30;100677.00;;;;4819064;29;20038;-87
2022/02/26 02:20:14;;;;;;;0.20;0.20;;;;;23.40;100660.00;;;;4819109;29;20054;-85
2022/02/26 02:22:44;;;;;;;0.03;0.00;;;;;23.30;100658.00;;;;4819595;29;20150;-85
2022/02/26 02:25:17;;;;;;;0.00;0.00;;;;;23.30;100662.00;;;;4806392;29;20069;-86
2022/02/26 02:27:47;;;;;;;0.00;0.00;;;;;23.20;100667.00;;;;4820162;29;20125;-86
2022/02/26 02:30:16;;;;;;;1.25;0.30;;;;;23.20;100644.00;;;;4820455;29;20746;-85
2022/02/26 02:32:45;;;;;;;0.00;0.00;;;;;23.30;100638.00;;;;4801238;29;20050;-86
2022/02/26 02:35:33;;;;;;;0.10;0.00;;;;;23.30;100654.00;;;;4818117;29;20064;-86
2022/02/26 02:38:07;;;;;;;0.00;0.00;;;;;23.30;100661.00;;;;4801886;29;20142;-86
2022/02/26 02:40:38;;;;;;;0.00;0.00;;;;;23.30;100659.00;;;;4819705;29;20058;-87
2022/02/26 02:43:12;;;;;;;0.00;0.00;;;;;23.20;100662.00;;;;4819780;29;20055;-87
2022/02/26 02:45:43;;;;;;;0.00;0.00;;;;;23.20;100653.00;;;;4818720;29;20154;-85
2022/02/26 02:48:15;;;;;;;0.00;0.00;;;;;23.30;100667.00;;;;4805001;29;20062;-87
2022/02/26 02:50:45;;;;;;;0.47;0.25;;;;;23.30;100648.00;;;;4819074;29;20058;-86
2022/02/26 02:53:18;;;;;;;0.00;0.00;;;;;23.30;100647.00;;;;4818640;29;20038;-85
2022/02/26 02:55:53;;;;;;;0.00;0.00;;;;;23.20;100659.00;;;;4832323;29;20111;-87
2022/02/26 02:58:29;;;;;;;0.30;0.30;;;;;23.10;100635.00;;;;4819763;29;21233;-86
2022/02/26 03:00:59;;;;;;;0.00;0.00;;;;;23.10;100651.00;;;;4802509;29;20534;-87
2022/02/26 03:03:29;;;;;;;0.00;0.00;;;;;23.10;100645.00;;;;4832137;29;20058;-85
2022/02/26 03:05:59;;;;;;;0.00;0.00;;;;;23.10;100648.00;;;;4805679;29;20133;-84
2022/02/26 03:08:28;;;;;;;0.00;0.00;;;;;23.10;100608.00;;;;4804894;29;20059;-85
2022/02/26 03:10:58;;;;;;;0.00;0.00;;;;;23.00;100642.00;;;;4820187;29;20062;-87
2022/02/26 03:13:29;;;;;;;0.00;0.00;;;;;23.10;100612.00;;;;4821249;29;20133;-86
2022/02/26 03:15:58;;;;;;;0.00;0.00;;;;;23.10;100622.00;;;;4822492;29;20487;-87
2022/02/26 03:18:31;;;;;;;0.15;0.15;;;;;23.10;100611.00;;;;4834410;29;20058;-87
2022/02/26 03:21:00;;;;;;;0.00;0.00;;;;;23.10;100632.00;;;;4805491;29;20138;-86
2022/02/26 03:23:33;;;;;;;0.00;0.00;;;;;23.10;100615.00;;;;4805628;29;20141;-86
2022/02/26 03:26:02;;;;;;;0.00;0.00;;;;;23.00;100624.00;;;;4821481;29;20050;-87
2022/02/26 03:28:36;;;;;;;0.00;0.00;;;;;23.00;100622.00;;;;4821457;29;20125;-85
2022/02/26 03:31:06;;;;;;;0.00;0.00;;;;;22.90;100630.00;;;;4804174;29;20073;-87
2022/02/26 03:33:36;;;;;;;0.00;0.00;;;;;22.90;100618.00;;;;4835392;29;20464;-87
2022/02/26 03:36:05;;;;;;;0.00;0.00;;;;;23.00;100622.00;;;;4837241;29;20047;-86
2022/02/26 03:38:38;;;;;;;0.00;0.00;;;;;23.10;100595.00;;;;4841085;29;20057;-87
2022/02/26 03:41:09;;;;;;;0.00;0.00;;;;;23.20;100612.00;;;;4823275;29;20050;-86
2022/02/26 03:43:38;;;;;;;0.00;0.00;;;;;23.10;100608.00;;;;4806631;29;20062;-87
2022/02/26 03:46:08;;;;;;;0.00;0.00;;;;;23.00;100588.00;;;;4822200;29;20083;-86
2022/02/26 03:48:40;;;;;;;0.00;0.00;;;;;22.90;100581.00;;;;4804449;29;20122;-88
2022/02/26 03:51:10;;;;;;;0.00;0.00;;;;;22.80;100606.00;;;;4805135;29;20145;-89
2022/02/26 03:53:41;;;;;;;0.00;0.00;;;;;22.80;100621.00;;;;4822095;29;20132;-86
2022/02/26 03:56:12;;;;;;;0.00;0.00;;;;;22.70;100618.00;;;;4835577;29;20107;-87
2022/02/26 03:58:42;;;;;;;0.00;0.00;;;;;22.60;100610.00;;;;4805377;29;20058;-86
2022/02/26 04:01:12;;;;;;;0.00;0.00;;;;;22.70;100619.00;;;;4822726;29;20501;-85
2022/02/26 04:03:45;;;;;;;0.00;0.00;;;;;22.60;100618.00;;;;4822715;29;20054;-86
2022/02/26 04:06:15;;;;;;;0.00;0.00;;;;;22.60;100601.00;;;;4822372;29;20050;-89
2022/02/26 04:08:44;;;;;;;0.00;0.00;;;;;22.60;100603.00;;;;4821576;29;20043;-85
2022/02/26 04:11:14;;;;;;;0.00;0.00;;;;;22.50;100595.00;;;;4820895;29;20042;-86
2022/02/26 04:13:46;;;;;;;0.00;0.00;;;;;22.50;100596.00;;;;4805866;29;20495;-86
2022/02/26 04:16:15;;;;;;;0.00;0.00;;;;;22.40;100599.00;;;;4821042;29;20518;-86
2022/02/26 04:18:47;;;;;;;0.00;0.00;;;;;22.40;100594.00;;;;4804058;29;20112;-87
2022/02/26 04:21:17;;;;;;;0.00;0.00;;;;;22.40;100593.00;;;;4803715;29;20054;-87
2022/02/26 04:23:49;;;;;;;0.00;0.00;;;;;22.30;100591.00;;;;4804482;29;20061;-85
2022/02/26 04:26:19;;;;;;;0.00;0.00;;;;;22.30;100590.00;;;;4834062;29;20078;-87
2022/02/26 04:28:51;;;;;;;0.00;0.00;;;;;22.20;100576.00;;;;4820196;29;20493;-85
2022/02/26 04:31:22;;;;;;;0.00;0.00;;;;;22.20;100589.00;;;;4820933;29;20046;-87
2022/02/26 04:33:52;;;;;;;;;;;;;22.20;100587.00;;;;4804637;29;20062;-84
2022/02/26 04:36:21;;;;;;;0.00;0.00;;;;;22.10;100586.00;;;;4833783;29;20028;-87
2022/02/26 04:38:53;;;;;;;0.00;0.00;;;;;22.10;100587.00;;;;4820237;29;20054;-87
2022/02/26 04:41:23;;;;;;;0.00;0.00;;;;;22.10;100591.00;;;;4803135;29;20083;-87
2022/02/26 04:43:55;;;;;;;0.00;0.00;;;;;22.10;100602.00;;;;4819434;29;20078;-85
2022/02/26 04:46:25;;;;;;;0.00;0.00;;;;;22.10;100588.00;;;;4819739;29;20058;-86
2022/02/26 04:48:57;;;;;;;0.00;0.00;;;;;22.10;100589.00;;;;4817425;29;20057;-85
2022/02/26 04:51:26;;;;;;;0.00;0.00;;;;;22.10;100573.00;;;;4803289;29;20423;-87
2022/02/26 04:53:58;;;;;;;0.00;0.00;;;;;22.10;100590.00;;;;4819995;29;20050;-87
2022/02/26 04:56:27;;;;;;;0.00;0.00;;;;;22.10;100571.00;;;;4818872;29;20549;-86
2022/02/26 04:58:59;;;;;;;0.00;0.00;;;;;22.10;100583.00;;;;4803879;29;20054;-88
2022/02/26 05:01:28;;;;;;;0.00;0.00;;;;;22.10;100578.00;;;;4802743;29;20646;-87
2022/02/26 05:04:00;;;;;;;0.00;0.00;;;;;22.00;100580.00;;;;4818696;29;20077;-87
2022/02/26 05:06:30;;;;;;;0.00;0.00;;;;;22.00;100567.00;;;;4832110;29;20801;-87
2022/02/26 05:09:01;;;;;;;0.00;0.00;;;;;22.00;100559.00;;;;4832824;29;20101;-87
2022/02/26 05:11:31;;;;;;;0.00;0.00;;;;;21.90;100568.00;;;;4819081;29;20046;-86
2022/02/26 05:14:03;;;;;;;0.00;0.00;;;;;21.90;100556.00;;;;4819026;29;20054;-85
2022/02/26 05:16:32;;;;;;;0.00;0.00;;;;;21.90;100570.00;;;;4847640;29;20050;-84
2022/02/26 05:19:05;;;;;;;0.00;0.00;;;;;21.90;100573.00;;;;4819134;29;20351;-85
2022/02/26 05:21:38;;;;;;;0.00;0.00;;;;;21.90;100559.00;;;;4818911;29;20114;-85
2022/02/26 05:24:08;;;;;;;0.00;0.00;;;;;21.80;100554.00;;;;4818822;29;20507;-85
2022/02/26 05:26:38;;;;;;;0.00;0.00;;;;;21.80;100581.00;;;;4801757;29;20054;-85
2022/02/26 05:29:07;;;;;;;0.00;0.00;;;;;21.80;100568.00;;;;4832506;29;20649;-86
2022/02/26 05:31:37;;;;;;;0.00;0.00;;;;;21.80;100570.00;;;;4818497;29;20050;-86
2022/02/26 05:34:09;;;;;;;0.00;0.00;;;;;21.80;100586.00;;;;4818750;29;20528;-85
2022/02/26 05:36:39;;;;;;;0.00;0.00;;;;;21.80;100552.00;;;;4801991;29;20066;-86
2022/02/26 05:39:10;;;;;;;0.00;0.00;;;;;21.80;100570.00;;;;4818726;29;20073;-84
2022/02/26 05:41:40;;;;;;;0.00;0.00;;;;;21.80;100572.00;;;;4831603;29;20078;-85
2022/02/26 05:44:12;;;;;;;0.00;0.00;;;;;21.80;100579.00;;;;4818262;29;20043;-85
2022/02/26 05:46:41;;;;;;;0.00;0.00;;;;;21.80;100564.00;;;;4818031;29;20050;-85
2022/02/26 05:49:11;;;;;;;0.00;0.00;;;;;21.80;100559.00;;;;4831979;29;20107;-85
2022/02/26 05:51:41;;;;;;;0.00;0.00;;;;;21.80;100573.00;;;;4817827;29;20430;-86
2022/02/26 05:54:10;;;;;;;0.00;0.00;;;;;21.80;100568.00;;;;4818374;29;20050;-86
2022/02/26 05:56:40;;;;;;;0.00;0.00;;;;;21.80;100568.00;;;;4801677;29;20050;-85
2022/02/26 05:59:10;;;;;;;0.00;0.00;;;;;21.80;100583.00;;;;4820165;29;20046;-86
2022/02/26 06:01:39;;;;;;;0.00;0.00;;;;;21.80;100579.00;;;;4828769;29;20054;-85
2022/02/26 06:04:09;;;;;;;0.00;0.00;;;;;21.70;100589.00;;;;4817066;29;20039;-86
2022/02/26 06:06:38;;;;;;;0.00;0.00;;;;;21.70;100604.00;;;;4843143;29;20050;-86
2022/02/26 06:09:08;;;;;;;0.00;0.00;;;;;21.60;100616.00;;;;4804400;29;20829;-87
2022/02/26 06:11:37;;;;;;;0.00;0.00;;;;;21.70;100604.00;;;;4802145;29;20060;-85
2022/02/26 06:14:07;;;;;;;0.00;0.00;;;;;21.70;100594.00;;;;4818418;29;20521;-84
2022/02/26 06:16:36;;;;;;;0.00;0.00;;;;;21.60;100590.00;;;;4819021;29;20379;-85
2022/02/26 06:19:06;;;;;;;0.00;0.00;;;;;21.50;100599.00;;;;4801862;29;20073;-85
2022/02/26 06:21:35;;;;;;;0.00;0.00;;;;;21.50;100601.00;;;;4818191;29;20058;-85
2022/02/26 06:24:05;;;;;;;0.00;0.00;;;;;21.50;100606.00;;;;4817695;29;20138;-85
2022/02/26 06:26:35;;;;;;;0.00;0.00;;;;;21.50;100618.00;;;;4810277;29;20050;-85
2022/02/26 06:29:07;;;;;;;0.00;0.00;;;;;21.40;100597.00;;;;4831628;29;20051;-85
2022/02/26 06:31:36;;;;;;;0.00;0.00;;;;;21.40;100610.00;;;;4801955;29;20530;-85
2022/02/26 06:34:06;;;;;;;0.00;0.00;;;;;21.30;100612.00;;;;4817988;29;20046;-85
2022/02/26 06:36:37;;;;;;;0.00;0.00;;;;;21.40;100608.00;;;;4818337;29;20039;-85
2022/02/26 06:39:09;;;;;;;0.00;0.00;;;;;21.40;100610.00;;;;4817823;29;20054;-85
2022/02/26 06:41:39;;;;;;;0.00;0.00;;;;;21.30;100599.00;;;;4820601;29;20062;-85
2022/02/26 06:44:08;;;;;;;0.00;0.00;;;;;21.30;100614.00;;;;4834669;29;20089;-85
2022/02/26 06:46:38;;;;;;;0.00;0.00;;;;;21.20;100622.00;;;;4835119;29;20113;-84
2022/02/26 06:49:08;;;;;;;0.00;0.00;;;;;21.30;100601.00;;;;4820638;29;20051;-85
2022/02/26 06:51:38;;;;;;;0.00;0.00;;;;;21.20;100604.00;;;;4821386;29;20569;-86
2022/02/26 06:54:08;;;;;;;0.00;0.00;;;;;21.30;100617.00;;;;4835163;29;20047;-85
2022/02/26 06:56:37;;;;;;;0.00;0.00;;;;;21.20;100614.00;;;;4821226;29;20123;-84
2022/02/26 06:59:06;;;;;;;0.00;0.00;;;;;21.20;100595.00;;;;4821476;29;20062;-85
2022/02/26 07:01:36;;;;;;;0.00;0.00;;;;;21.20;100605.00;;;;4820582;29;20054;-86
2022/02/26 07:04:06;;;;;;;0.00;0.00;;;;;21.20;100609.00;;;;4821063;29;20054;-86
2022/02/26 07:06:37;;;;;;;0.30;0.30;;;;;21.20;100597.00;;;;4834366;29;20046;-85
2022/02/26 07:09:07;;;;;;;0.98;0.65;;;;;21.20;100595.00;;;;4835059;29;20042;-84
2022/02/26 07:11:37;;;;;;;0.00;0.00;;;;;21.20;100606.00;;;;4819757;29;20054;-85
2022/02/26 07:14:06;;;;;;;0.00;0.00;;;;;21.20;100622.00;;;;4820669;29;20054;-85
2022/02/26 07:16:39;;;;;;;0.00;0.00;;;;;21.20;100618.00;;;;4835033;29;20085;-85
2022/02/26 07:19:09;;;;;;;0.00;0.00;;;;;21.20;100619.00;;;;4820903;29;20115;-85
2022/02/26 07:21:40;;;;;;;0.00;0.00;;;;;21.20;100616.00;;;;4842997;29;20082;-87
2022/02/26 07:24:09;;;;;;;1.10;0.45;;;;;21.30;100615.00;;;;4820479;29;20042;-87
2022/02/26 07:26:41;;;;;;;0.10;0.00;;;;;21.30;100620.00;;;;4820925;29;20096;-85
2022/02/26 07:29:11;;;;;;;0.00;0.00;;;;;21.30;100613.00;;;;4820568;29;20090;-85
2022/02/26 07:31:42;;;;;;;0.00;0.00;;;;;21.30;100629.00;;;;4819126;29;20058;-86
2022/02/26 07:34:12;;;;;;;0.00;0.00;;;;;21.20;100619.00;;;;4820482;29;20063;-88
2022/02/26 07:36:45;;;;;;;0.00;0.00;;;;;21.10;100612.00;;;;4833149;29;20408;-86
2022/02/26 07:39:16;;;;;;;0.00;0.00;;;;;21.20;100621.00;;;;4820804;29;20528;-86
2022/02/26 07:41:45;;;;;;;0.00;0.00;;;;;21.20;100635.00;;;;4820135;29;20364;-87
2022/02/26 07:44:15;;;;;;;0.00;0.00;;;;;21.20;100623.00;;;;4820292;29;20530;-87
2022/02/26 07:46:47;;;;;;;0.00;0.00;;;;;21.10;100630.00;;;;4834114;29;20054;-85
2022/02/26 07:49:16;;;;;;;0.00;0.00;;;;;21.20;100620.00;;;;4804156;29;20046;-85
2022/02/26 07:51:48;;;;;;;0.00;0.00;;;;;21.10;100622.00;;;;4820507;29;20046;-85
2022/02/26 07:54:17;;;;;;;0.03;0.03;;;;;21.20;100626.00;;;;4820311;29;20047;-85
2022/02/26 07:56:49;;;;;;;1.55;1.02;;;;;21.20;100633.00;;;;4833020;29;20046;-85
2022/02/26 07:59:19;;;;;;;0.00;0.00;;;;;21.10;100638.00;;;;4819701;29;20050;-84
2022/02/26 08:01:51;;;;;;;0.00;0.00;;;;;21.00;100635.00;;;;4819761;29;20624;-86
2022/02/26 08:04:21;;;;;;;0.00;0.00;;;;;21.00;100641.00;;;;4819732;29;20434;-87
2022/02/26 08:06:52;;;;;;;0.00;0.00;;;;;21.00;100656.00;;;;4820772;29;20055;-86
2022/02/26 08:09:23;;;;;;;0.00;0.00;;;;;21.10;100638.00;;;;4818037;29;20643;-87
2022/02/26 08:11:53;;;;;;;0.00;0.00;;;;;21.20;100664.00;;;;4803505;29;20065;-85
2022/02/26 08:14:23;;;;;;;0.00;0.00;;;;;21.20;100660.00;;;;4803302;29;20046;-85
2022/02/26 08:16:55;;;;;;;0.00;0.00;;;;;21.20;100658.00;;;;4804353;29;20661;-85
2022/02/26 08:19:24;;;;;;;0.00;0.00;;;;;21.20;100658.00;;;;4819994;29;20627;-85
2022/02/26 08:21:58;;;;;;;0.00;0.00;;;;;21.20;100648.00;;;;4803313;29;20081;-86
2022/02/26 08:24:27;;;;;;;0.00;0.00;;;;;21.20;100672.00;;;;4819883;29;20050;-85
2022/02/26 08:26:57;;;;;;;0.00;0.00;;;;;21.20;100667.00;;;;4803544;29;20052;-85
2022/02/26 08:29:27;;;;;;;0.00;0.00;;;;;21.20;100671.00;;;;4833586;29;20502;-84
2022/02/26 08:32:00;;;;;;;0.00;0.00;;;;;21.10;100678.00;;;;4826760;29;20056;-86
2022/02/26 08:34:29;;;;;;;0.00;0.00;;;;;21.00;100675.00;;;;4825352;29;20038;-86
2022/02/26 08:37:01;;;;;;;0.00;0.00;;;;;21.10;100661.00;;;;4821133;29;21138;-86
2022/02/26 08:39:31;;;;;;;0.00;0.00;;;;;21.20;100674.00;;;;4802940;29;20530;-84
2022/02/26 08:42:04;;;;;;;0.00;0.00;;;;;21.30;100665.00;;;;4814107;29;20058;-85
2022/02/26 08:44:34;;;;;;;0.00;0.00;;;;;21.40;100671.00;;;;4816009;29;20046;-87
2022/02/26 08:47:04;;;;;;;0.00;0.00;;;;;21.40;100680.00;;;;4800617;29;20115;-85
2022/02/26 08:49:34;;;;;;;0.00;0.00;;;;;21.40;100689.00;;;;4820157;29;20060;-87
2022/02/26 08:52:07;;;;;;;0.00;0.00;;;;;21.30;100682.00;;;;4802644;29;20147;-87
2022/02/26 08:54:36;;;;;;;0.00;0.00;;;;;21.30;100686.00;;;;4819250;29;20047;-87
2022/02/26 08:57:06;;;;;;;0.00;0.00;;;;;21.30;100676.00;;;;4819281;29;20137;-87
2022/02/26 08:59:36;;;;;;;0.00;0.00;;;;;21.30;100676.00;;;;4803059;29;20054;-86
2022/02/26 09:02:08;;;;;;;0.00;0.00;;;;;21.30;100685.00;;;;4818357;29;20050;-89
2022/02/26 09:04:39;;;;;;;0.00;0.00;;;;;21.30;100695.00;;;;4832615;29;20061;-85
2022/02/26 09:07:08;;;;;;;0.00;0.00;;;;;21.30;100679.00;;;;4819358;29;20050;-89
2022/02/26 09:09:38;;;;;;;0.00;0.00;;;;;21.20;100682.00;;;;4817772;29;20054;-88
2022/02/26 09:12:10;;;;;;;0.00;0.00;;;;;21.20;100685.00;;;;4819053;29;20502;-86
2022/02/26 09:14:40;;;;;;;0.00;0.00;;;;;21.20;100693.00;;;;4832541;29;20072;-87
2022/02/26 09:17:12;;;;;;;0.00;0.00;;;;;21.30;100706.00;;;;4818703;29;20518;-88
2022/02/26 09:19:42;;;;;;;0.00;0.00;;;;;21.30;100694.00;;;;4802863;29;20503;-86
2022/02/26 09:22:12;;;;;;;;;;;;;21.40;100704.00;;;;4820306;29;20159;-87
2022/02/26 09:24:42;;;;;;;0.00;0.00;;;;;21.30;100703.00;;;;4802782;29;19928;-86
2022/02/26 09:27:12;;;;;;;0.00;0.00;;;;;21.40;100716.00;;;;4818372;29;20617;-85
2022/02/26 09:29:41;;;;;;;0.00;0.00;;;;;21.40;100717.00;;;;4817465;29;20060;-86
2022/02/26 09:32:11;;;;;;;0.00;0.00;;;;;21.40;100724.00;;;;4818087;29;20063;-87
2022/02/26 09:34:43;;;;;;;0.00;0.00;;;;;21.50;100729.00;;;;4818751;29;20154;-85
2022/02/26 09:37:13;;;;;;;0.00;0.00;;;;;21.60;100730.00;;;;4802318;29;20428;-86
2022/02/26 09:39:43;;;;;;;0.00;0.00;;;;;21.60;100738.00;;;;4831749;29;20149;-88
2022/02/26 09:42:14;;;;;;;0.00;0.00;;;;;21.60;100697.00;;;;4795453;29;20066;-89
2022/02/26 09:44:43;;;;;;;0.00;0.00;;;;;21.70;100718.00;;;;4796418;29;20343;-87
2022/02/26 09:47:13;;;;;;;0.00;0.00;;;;;21.70;100739.00;;;;4799768;29;20487;-87
2022/02/26 09:49:46;;;;;;;0.00;0.00;;;;;21.80;100712.00;;;;4813482;29;20057;-87
2022/02/26 09:52:17;;;;;;;0.00;0.00;;;;;21.90;100736.00;;;;4799676;29;20042;-88
2022/02/26 09:54:51;;;;;;;0.00;0.00;;;;;21.90;100724.00;;;;4799697;29;20043;-87
2022/02/26 09:57:26;;;;;;;0.00;0.00;;;;;21.90;100737.00;;;;4799357;29;20099;-86
2022/02/26 09:59:56;;;;;;;0.00;0.00;;;;;22.00;100747.00;;;;4783585;29;20445;-86
2022/02/26 10:02:34;;;;;;;0.00;0.00;;;;;22.10;100708.00;;;;4800422;29;20043;-89
2022/02/26 10:05:09;;;;;;;0.00;0.00;;;;;22.30;100726.00;;;;4799612;29;20051;-89
2022/02/26 10:07:41;;;;;;;0.00;0.00;;;;;22.50;100750.00;;;;4783461;29;20061;-87
2022/02/26 10:10:18;;;;;;;0.00;0.00;;;;;22.60;100740.00;;;;4800169;29;20043;-88
2022/02/26 10:12:54;;;;;;;0.00;0.00;;;;;22.50;100728.00;;;;4813364;29;20046;-87
2022/02/26 10:15:27;;;;;;;0.00;0.00;;;;;22.70;100727.00;;;;4816569;29;20107;-85
2022/02/26 10:18:06;;;;;;;0.00;0.00;;;;;23.00;100729.00;;;;4803314;29;20124;-88
2022/02/26 10:20:45;;;;;;;0.00;0.00;;;;;24.60;100655.00;;;;4796640;29;20552;-85
2022/02/26 10:23:15;;;;;;;0.00;0.00;;;;;25.70;100671.00;;;;4787495;29;20561;-87
2022/02/26 10:25:45;;;;;;;0.00;0.00;;;;;28.60;100578.00;;;;4802994;29;20070;-88
2022/02/26 10:28:16;;;;;;;0.00;0.00;;;;;30.40;100583.00;;;;4787656;29;20054;-88
2022/02/26 10:30:47;;;;;;;0.00;0.00;;;;;31.70;100560.00;;;;4803632;29;20055;-85
2022/02/26 10:33:22;;;;;;;0.00;0.00;;;;;32.40;100574.00;;;;4787146;29;20042;-86
2022/02/26 10:35:56;;;;;;;0.00;0.00;;;;;32.50;100566.00;;;;4802301;29;20054;-86
2022/02/26 10:38:32;;;;;;;0.10;0.10;;;;;32.70;100557.00;;;;4786069;29;20067;-87
2022/02/26 10:41:04;;;;;;;0.00;0.00;;;;;32.90;100581.00;;;;4803353;29;20130;-84
2022/02/26 10:43:46;;;;;;;0.55;0.55;;;;;33.20;100565.00;;;;4846459;29;20059;-86
2022/02/26 10:46:30;;;;;;;0.00;0.00;;;;;33.50;100567.00;;;;4837678;29;20082;-85
2022/02/26 10:49:07;;;;;;;0.00;0.00;;;;;34.00;100551.00;;;;4821393;29;20078;-85
2022/02/26 10:51:40;;;;;;;0.00;0.00;;;;;34.40;100546.00;;;;4823008;29;20077;-88
2022/02/26 10:54:17;;;;;;;0.00;0.00;;;;;34.60;100537.00;;;;4822944;29;20082;-87
2022/02/26 10:56:47;;;;;;;0.03;0.03;;;;;34.80;100528.00;;;;4823206;29;20046;-86
2022/02/26 10:59:37;;;;;;;0.00;0.00;;;;;34.70;100530.00;;;;4823449;29;20080;-88
2022/02/26 11:02:09;;;;;;;0.00;0.00;;;;;35.00;100532.00;;;;4822264;29;20307;-87
2022/02/26 11:04:40;;;;;;;0.00;0.00;;;;;35.30;100525.00;;;;4854156;29;20622;-85
2022/02/26 11:07:10;;;;;;;0.00;0.00;;;;;35.50;100527.00;;;;4815748;29;20061;-87
2022/02/26 11:09:43;;;;;;;0.00;0.00;;;;;35.80;100523.00;;;;4823730;29;20058;-88
2022/02/26 11:12:15;;;;;;;0.00;0.00;;;;;36.30;100538.00;;;;4820285;29;20066;-87
2022/02/26 11:14:58;;;;;;;0.00;0.00;;;;;37.00;100538.00;;;;4821441;29;20049;-85
2022/02/26 11:17:34;;;;;;;0.00;0.00;;;;;36.80;100558.00;;;;4852760;29;20046;-85
2022/02/26 11:20:05;;;;;;;0.00;0.00;;;;;36.60;100579.00;;;;4823035;29;21019;-86
2022/02/26 11:22:34;;;;;;;0.10;0.10;;;;;37.00;100580.00;;;;4816881;29;20054;-85
2022/02/26 11:25:04;;;;;;;0.00;0.00;;;;;37.50;100582.00;;;;4823640;29;20472;-86
2022/02/26 11:27:34;;;;;;;0.00;0.00;;;;;38.20;100603.00;;;;4822479;29;20057;-87
2022/02/26 11:30:05;;;;;;;0.17;0.17;;;;;37.90;100595.00;;;;4822095;29;20148;-85
2022/02/26 11:32:40;;;;;;;0.00;0.00;;;;;37.50;100592.00;;;;4854825;29;20107;-85
2022/02/26 11:35:21;;;;;;;0.00;0.00;;;;;37.00;100598.00;;;;4840596;29;20133;-86
2022/02/26 11:38:03;;;;;;;0.00;0.00;;;;;36.50;100604.00;;;;4839767;29;20714;-85
2022/02/26 11:40:33;;;;;;;0.00;0.00;;;;;36.70;100592.00;;;;4840456;29;20049;-84
2022/02/26 11:43:02;;;;;;;1.35;1.13;;;;;36.60;100580.00;;;;4820757;29;20073;-85
2022/02/26 11:45:34;;;;;;;0.00;0.00;;;;;36.60;100592.00;;;;4835911;29;20065;-86
2022/02/26 11:48:08;;;;;;;0.00;0.00;;;;;36.20;100599.00;;;;4822040;29;20046;-88
2022/02/26 11:50:41;;;;;;;0.00;0.00;;;;;36.70;100602.00;;;;4821074;29;20103;-86
2022/02/26 11:53:20;;;;;;;0.10;0.10;;;;;37.30;100607.00;;;;4821407;29;20054;-84
2022/02/26 11:55:55;;;;;;;0.17;0.17;;;;;37.10;100631.00;;;;4822111;29;20062;-87
2022/02/26 11:58:34;;;;;;;0.00;0.00;;;;;37.60;100635.00;;;;4806533;29;20050;-86
2022/02/26 12:01:15;;;;;;;0.00;0.00;;;;;36.80;100640.00;;;;4823466;29;20049;-88
2022/02/26 12:03:51;;;;;;;0.00;0.00;;;;;36.40;100633.00;;;;4822405;29;20077;-86
2022/02/26 12:06:21;;;;;;;0.00;0.00;;;;;34.00;100685.00;;;;4821111;29;20053;-86
2022/02/26 12:09:01;;;;;;;0.00;0.00;;;;;32.10;100728.00;;;;4820211;29;20117;-88
2022/02/26 12:11:38;;;;;;;0.00;0.00;;;;;32.20;100731.00;;;;4820021;29;20050;-89
2022/02/26 12:14:19;;;;;;;0.47;0.38;;;;;32.60;100701.00;;;;4819319;29;20510;-83
2022/02/26 12:16:54;;;;;;;0.00;0.00;;;;;34.40;100664.00;;;;4819398;29;20086;-84
2022/02/26 12:19:27;;;;;;;0.00;0.00;;;;;34.20;100743.00;;;;4803421;29;20137;-82
2022/02/26 12:22:04;;;;;;;0.00;0.00;;;;;34.00;100690.00;;;;4819332;29;20107;-83
2022/02/26 12:24:48;;;;;;;0.00;0.00;;;;;34.70;100709.00;;;;4818643;29;20073;-85
2022/02/26 12:27:31;;;;;;;0.00;0.00;;;;;34.20;100714.00;;;;4819085;29;20050;-82
2022/02/26 12:30:29;;;;;;;0.10;0.10;;;;;34.00;100720.00;;;;4819697;29;20078;-81